Ayrshire, Indiana
Current Conditions -  °F | °C
As of 3:35 AM on Thursday 27 Nov 2014 (Local Time) from KHNB Reporting Station
Overcast Overcast  
Wind Chill: -5°   Ceiling: 800
Heat Index:   Visibility: 5mi
Dew Point: -3°   Wind: 12mph
Humidity: 80%   Direction: 340°NNW
Pressure: 30.2"   Gusts: NA
Location:  38.3488°N, 87.2217°W
Report Text: KHNB 270935Z AUTO 34010KT 5SM OVC008 00/M03 A3020 RMK AO1
Loading
Personal Weather Stations






























Interactive Weather Map New forecast layout! Learn more

10-Day Weather Forecast

Advertisements
Track Severe Weather on mobile